Time;durP1;ratioP1;P1;durP2;ratioP2;P2;SDS_P1;SDS_P2;PMS_P1;PMS_P2;Temp;Humidity;BMP_temperature;BMP_pressure;BME280_temperature;BME280_humidity;BME280_pressure;Samples;Min_cycle;Max_cycle;Signal;HPM_P1;HPM_P2
2021/06/21 00:00:00;;;;;;;;;;;25.50;99.90;;;;;;5159370;27;20225;-75
2021/06/21 00:02:26;;;;;;;;;;;25.40;99.90;;;;;;5150916;27;19923;-75
2021/06/21 00:04:53;;;;;;;;;;;25.40;99.90;;;;;;5146082;27;19958;-76
2021/06/21 00:07:19;;;;;;;;;;;25.50;99.90;;;;;;5151613;27;19979;-76
2021/06/21 00:09:45;;;;;;;;;;;25.50;99.90;;;;;;5148196;27;20676;-76
2021/06/21 00:12:11;;;;;;;;;;;25.50;99.90;;;;;;5145899;27;20384;-76
2021/06/21 00:14:37;;;;;;;;;;;25.50;99.90;;;;;;5138913;27;19911;-75
2021/06/21 00:17:03;;;;;;;;;;;25.50;99.90;;;;;;5130729;27;19964;-75
2021/06/21 00:19:28;;;;;;;;;;;25.50;99.90;;;;;;5138128;27;19937;-75
2021/06/21 00:21:54;;;;;;;;;;;25.50;99.90;;;;;;5143192;27;19911;-75
2021/06/21 00:24:21;;;;;;;;;;;25.40;99.90;;;;;;5124723;27;19908;-74
2021/06/21 00:26:47;;;;;;;;;;;25.60;99.90;;;;;;5134372;27;19926;-75
2021/06/21 00:29:12;;;;;;;;;;;25.70;99.90;;;;;;5137745;27;19915;-76
2021/06/21 00:31:38;;;;;;;;;;;25.80;99.90;;;;;;5134484;27;19918;-75
2021/06/21 00:34:03;;;;;;;;;;;25.70;99.90;;;;;;5137172;27;19914;-75
2021/06/21 00:36:29;;;;;;;;;;;25.60;99.90;;;;;;5131106;27;19929;-75
2021/06/21 00:38:55;;;;;;;;;;;25.50;99.90;;;;;;5143520;27;19919;-75
2021/06/21 00:41:20;;;;;;;;;;;25.50;99.90;;;;;;5133252;27;19918;-75
2021/06/21 00:43:46;;;;;;;;;;;25.40;99.90;;;;;;5138199;27;19914;-75
2021/06/21 00:46:12;;;;;;;;;;;25.40;99.90;;;;;;5136581;27;19911;-75
2021/06/21 00:48:37;;;;;;;;;;;25.30;99.90;;;;;;5137860;27;20284;-75
2021/06/21 00:51:03;;;;;;;;;;;25.30;99.90;;;;;;5133759;27;19907;-75
2021/06/21 00:53:29;;;;;;;;;;;25.20;99.90;;;;;;5121263;27;19915;-75
2021/06/21 00:55:55;;;;;;;;;;;25.20;99.90;;;;;;5116506;27;19985;-75
2021/06/21 00:58:21;;;;;;;;;;;25.20;99.90;;;;;;5138865;27;19911;-76
2021/06/21 01:00:46;;;;;;;;;;;25.30;99.90;;;;;;5120088;27;20338;-75
2021/06/21 01:03:12;;;;;;;;;;;25.40;99.90;;;;;;5135372;27;20391;-75
2021/06/21 01:05:39;;;;;;;;;;;25.50;99.90;;;;;;5118787;27;20380;-75
2021/06/21 01:08:06;;;;;;;;;;;25.50;99.90;;;;;;5143608;27;19911;-75
2021/06/21 01:10:32;;;;;;;;;;;25.40;99.90;;;;;;5129321;27;20019;-76
2021/06/21 01:13:16;;;;;;;;;;;25.40;99.90;;;;;;5138872;27;20045;-75
2021/06/21 01:15:46;;;;;;;;;;;25.30;99.90;;;;;;5134658;27;20006;-76
2021/06/21 01:18:11;;;;;;;;;;;25.30;99.90;;;;;;5126813;27;19923;-75
2021/06/21 01:20:40;;;;;;;;;;;25.30;99.90;;;;;;5145208;27;19911;-77
2021/06/21 01:23:15;;;;;;;;;;;25.20;99.90;;;;;;5118954;27;19919;-76
2021/06/21 01:25:40;;;;;;;;;;;25.20;99.90;;;;;;5114198;27;19955;-77
2021/06/21 01:28:06;;;;;;;;;;;25.10;99.90;;;;;;5116467;27;19955;-76
2021/06/21 01:30:39;;;;;;;;;;;25.00;99.90;;;;;;5118643;27;19912;-76
2021/06/21 01:33:05;;;;;;;;;;;25.00;99.90;;;;;;5135116;27;19919;-75
2021/06/21 01:35:31;;;;;;;;;;;25.00;99.90;;;;;;5141053;27;19915;-77
2021/06/21 01:37:58;;;;;;;;;;;25.00;99.90;;;;;;5124301;27;19926;-76
2021/06/21 01:40:24;;;;;;;;;;;24.90;99.90;;;;;;5135059;27;19979;-76
2021/06/21 01:43:01;;;;;;;;;;;24.80;99.90;;;;;;5128276;27;19912;-76
2021/06/21 01:45:28;;;;;;;;;;;24.80;99.90;;;;;;5117305;27;19911;-76
2021/06/21 01:47:54;;;;;;;;;;;24.80;99.90;;;;;;5132081;27;19964;-76
2021/06/21 01:50:21;;;;;;;;;;;24.70;99.90;;;;;;5133923;27;19911;-76
2021/06/21 01:52:49;;;;;;;;;;;24.80;99.90;;;;;;5126457;27;20609;-76
2021/06/21 01:55:15;;;;;;;;;;;24.80;99.90;;;;;;5137072;27;19911;-75
2021/06/21 01:57:44;;;;;;;;;;;24.70;99.90;;;;;;5112705;27;20441;-75
2021/06/21 02:00:10;;;;;;;;;;;24.70;99.90;;;;;;5140631;27;20333;-76
2021/06/21 02:02:36;;;;;;;;;;;24.80;99.90;;;;;;5133707;27;20041;-76
2021/06/21 02:05:03;;;;;;;;;;;24.80;99.90;;;;;;5134045;27;19981;-79
2021/06/21 02:07:29;;;;;;;;;;;24.80;99.90;;;;;;5151178;27;19906;-78
2021/06/21 02:09:55;;;;;;;;;;;24.70;99.90;;;;;;5135310;27;19915;-75
2021/06/21 02:12:22;;;;;;;;;;;24.60;99.90;;;;;;5138975;27;20007;-76
2021/06/21 02:14:49;;;;;;;;;;;24.60;99.90;;;;;;5111866;27;19911;-78
2021/06/21 02:17:16;;;;;;;;;;;24.60;99.90;;;;;;5124395;27;20284;-76
2021/06/21 02:19:43;;;;;;;;;;;24.50;99.90;;;;;;5140599;27;19912;-76
2021/06/21 02:22:08;;;;;;;;;;;24.50;99.90;;;;;;5128504;27;19939;-77
2021/06/21 02:24:35;;;;;;;;;;;24.40;99.90;;;;;;5116791;27;19934;-75
2021/06/21 02:27:02;;;;;;;;;;;24.50;99.90;;;;;;5140002;27;19911;-76
2021/06/21 02:29:28;;;;;;;;;;;24.40;99.90;;;;;;5136332;27;19911;-75
2021/06/21 02:31:54;;;;;;;;;;;24.40;99.90;;;;;;5119381;28;19911;-77
2021/06/21 02:34:19;;;;;;;;;;;24.40;99.90;;;;;;5135640;27;20296;-76
2021/06/21 02:36:45;;;;;;;;;;;24.40;99.90;;;;;;5109836;28;19977;-74
2021/06/21 02:39:12;;;;;;;;;;;24.40;99.90;;;;;;5129542;27;20388;-77
2021/06/21 02:41:37;;;;;;;;;;;24.30;99.90;;;;;;5135381;27;19916;-75
2021/06/21 02:44:04;;;;;;;;;;;24.20;99.90;;;;;;5130669;27;19911;-76
2021/06/21 02:46:29;;;;;;;;;;;24.20;99.90;;;;;;5127735;27;19912;-77
2021/06/21 02:48:55;;;;;;;;;;;24.20;99.90;;;;;;5130745;28;19911;-75
2021/06/21 02:51:34;;;;;;;;;;;24.20;99.90;;;;;;5132122;27;19911;-75
2021/06/21 02:54:08;;;;;;;;;;;24.30;99.90;;;;;;5134498;27;20388;-76
2021/06/21 02:57:09;;;;;;;;;;;24.20;99.90;;;;;;5127663;28;19919;-76
2021/06/21 02:59:36;;;;;;;;;;;24.20;99.90;;;;;;5130431;27;19915;-76
2021/06/21 03:02:02;;;;;;;;;;;24.20;99.90;;;;;;5115146;28;19931;-76
2021/06/21 03:04:28;;;;;;;;;;;24.20;99.90;;;;;;5153335;27;19914;-76
2021/06/21 03:06:55;;;;;;;;;;;24.10;99.90;;;;;;5136854;27;19918;-76
2021/06/21 03:09:21;;;;;;;;;;;24.00;99.90;;;;;;5128004;27;19962;-75
2021/06/21 03:11:51;;;;;;;;;;;23.90;99.90;;;;;;5138388;27;20002;-75
2021/06/21 03:14:20;;;;;;;;;;;23.90;99.90;;;;;;5134700;27;20354;-76
2021/06/21 03:16:46;;;;;;;;;;;23.90;99.90;;;;;;5141621;27;19919;-76
2021/06/21 03:19:14;;;;;;;;;;;23.90;99.90;;;;;;5137179;27;19919;-75
2021/06/21 03:21:44;;;;;;;;;;;24.00;99.90;;;;;;5120955;28;19911;-76
2021/06/21 03:24:13;;;;;;;;;;;23.90;99.90;;;;;;5135254;27;19907;-76
2021/06/21 03:26:39;;;;;;;;;;;23.90;99.90;;;;;;5126242;27;19911;-76
2021/06/21 03:29:11;;;;;;;;;;;23.80;99.90;;;;;;5147588;27;20432;-76
2021/06/21 03:31:37;;;;;;;;;;;23.80;99.90;;;;;;5140348;27;19920;-76
2021/06/21 03:34:02;;;;;;;;;;;23.80;99.90;;;;;;5104768;28;19922;-75
2021/06/21 03:36:28;;;;;;;;;;;23.80;99.90;;;;;;5134919;27;19946;-75
2021/06/21 03:38:53;;;;;;;;;;;23.90;99.90;;;;;;5126577;27;20394;-75
2021/06/21 03:41:19;;;;;;;;;;;23.90;99.90;;;;;;5153824;27;19911;-75
2021/06/21 03:43:45;;;;;;;;;;;23.90;99.90;;;;;;5120581;27;19911;-75
2021/06/21 03:46:10;;;;;;;;;;;24.00;99.90;;;;;;5114971;27;19919;-75
2021/06/21 03:48:37;;;;;;;;;;;24.00;99.90;;;;;;5122342;27;20045;-74
2021/06/21 03:51:03;;;;;;;;;;;23.90;99.90;;;;;;5122292;27;19919;-76
2021/06/21 03:53:28;;;;;;;;;;;23.90;99.90;;;;;;5116251;27;19926;-75
2021/06/21 03:55:54;;;;;;;;;;;23.90;99.90;;;;;;5136641;27;19912;-75
2021/06/21 03:58:20;;;;;;;;;;;23.90;99.90;;;;;;5141088;27;20381;-74
2021/06/21 04:00:46;;;;;;;;;;;24.00;99.90;;;;;;5132860;27;19922;-76
2021/06/21 04:03:11;;;;;;;;;;;24.10;99.90;;;;;;5125815;27;19927;-77
2021/06/21 04:05:39;;;;;;;;;;;24.10;99.90;;;;;;5136082;27;19927;-75
2021/06/21 04:08:05;;;;;;;;;;;24.00;99.90;;;;;;5139723;27;20006;-75
2021/06/21 04:10:32;;;;;;;;;;;24.10;99.90;;;;;;5144800;27;20425;-75
2021/06/21 04:12:57;;;;;;;;;;;24.00;99.90;;;;;;5125451;27;19916;-76
2021/06/21 04:15:33;;;;;;;;;;;24.00;99.90;;;;;;5133690;27;19961;-75
2021/06/21 04:17:59;;;;;;;;;;;24.00;99.90;;;;;;5126032;27;19978;-75
2021/06/21 04:20:25;;;;;;;;;;;24.20;99.90;;;;;;5142288;27;20288;-75
2021/06/21 04:22:51;;;;;;;;;;;24.20;99.90;;;;;;5153878;27;19908;-76
2021/06/21 04:25:17;;;;;;;;;;;24.30;99.90;;;;;;5130673;27;19998;-76
2021/06/21 04:27:43;;;;;;;;;;;24.40;99.90;;;;;;5134481;27;19965;-76
2021/06/21 04:30:10;;;;;;;;;;;24.40;99.90;;;;;;5137042;27;19923;-75
2021/06/21 04:32:36;;;;;;;;;;;24.40;99.90;;;;;;5133605;27;20312;-76
2021/06/21 04:35:02;;;;;;;;;;;24.50;99.90;;;;;;5135588;27;19919;-76
2021/06/21 04:37:28;;;;;;;;;;;24.60;99.90;;;;;;5140830;27;19915;-76
2021/06/21 04:39:53;;;;;;;;;;;24.50;99.90;;;;;;5128802;27;19922;-76
2021/06/21 04:42:19;;;;;;;;;;;24.50;99.90;;;;;;5141900;27;20056;-77
2021/06/21 04:44:45;;;;;;;;;;;24.60;99.90;;;;;;5139768;27;19911;-77
2021/06/21 04:47:11;;;;;;;;;;;24.60;99.90;;;;;;5138775;27;19911;-77
2021/06/21 04:49:37;;;;;;;;;;;24.70;99.90;;;;;;5139343;27;19911;-76
2021/06/21 04:52:05;;;;;;;;;;;24.60;99.90;;;;;;5142395;27;20493;-77
2021/06/21 04:54:30;;;;;;;;;;;24.60;99.90;;;;;;5139250;27;20009;-76
2021/06/21 04:56:56;;;;;;;;;;;24.70;99.90;;;;;;5142263;27;20012;-76
2021/06/21 04:59:22;;;;;;;;;;;24.80;99.90;;;;;;5113737;27;19920;-77
2021/06/21 05:01:47;;;;;;;;;;;24.90;99.90;;;;;;5116656;27;19911;-75
2021/06/21 05:04:13;;;;;;;;;;;24.90;99.90;;;;;;5126153;27;19970;-75
2021/06/21 05:06:39;;;;;;;;;;;24.90;99.90;;;;;;5149442;27;19907;-75
2021/06/21 05:09:05;;;;;;;;;;;25.00;99.90;;;;;;5147236;27;19915;-76
2021/06/21 05:11:31;;;;;;;;;;;25.20;99.90;;;;;;5143606;27;20321;-76
2021/06/21 05:13:57;;;;;;;;;;;25.30;99.90;;;;;;5139110;27;19993;-77
2021/06/21 05:16:22;;;;;;;;;;;25.20;99.90;;;;;;5137403;27;19971;-74
2021/06/21 05:18:48;;;;;;;;;;;25.30;99.90;;;;;;5112347;27;19923;-77
2021/06/21 05:21:14;;;;;;;;;;;25.30;99.90;;;;;;5139236;27;19911;-77
2021/06/21 05:23:39;;;;;;;;;;;25.40;99.90;;;;;;5124648;27;19912;-76
2021/06/21 05:26:05;;;;;;;;;;;25.50;99.90;;;;;;5142060;27;19915;-75
2021/06/21 05:28:30;;;;;;;;;;;25.60;99.90;;;;;;5133667;27;19911;-76
2021/06/21 05:30:56;;;;;;;;;;;25.60;99.90;;;;;;5145062;27;19907;-76
2021/06/21 05:33:22;;;;;;;;;;;25.70;99.90;;;;;;5130954;27;19911;-76
2021/06/21 05:35:47;;;;;;;;;;;25.70;99.90;;;;;;5129127;27;19912;-76
2021/06/21 05:38:13;;;;;;;;;;;25.80;99.90;;;;;;5133272;27;19947;-76
2021/06/21 05:40:38;;;;;;;;;;;26.00;99.90;;;;;;5127168;27;19915;-77
2021/06/21 05:43:04;;;;;;;;;;;26.10;99.90;;;;;;5127928;27;19911;-76
2021/06/21 05:45:30;;;;;;;;;;;26.20;99.90;;;;;;5119809;27;19922;-76
2021/06/21 05:47:55;;;;;;;;;;;26.30;99.90;;;;;;5142382;27;19950;-76
2021/06/21 05:50:21;;;;;;;;;;;26.40;99.90;;;;;;5133045;27;20376;-75
2021/06/21 05:52:48;;;;;;;;;;;26.40;99.90;;;;;;5135503;27;19908;-75
2021/06/21 05:55:13;;;;;;;;;;;26.50;99.90;;;;;;5143846;27;20330;-76
2021/06/21 05:57:39;;;;;;;;;;;26.60;99.90;;;;;;5118478;27;19915;-75
2021/06/21 06:00:05;;;;;;;;;;;26.70;99.90;;;;;;5132124;27;19919;-75
2021/06/21 06:02:31;;;;;;;;;;;26.80;99.90;;;;;;5135987;27;19912;-75
2021/06/21 06:04:56;;;;;;;;;;;26.80;99.90;;;;;;5124569;27;19915;-75
2021/06/21 06:07:24;;;;;;;;;;;27.10;99.90;;;;;;5137059;27;19915;-76
2021/06/21 06:09:50;;;;;;;;;;;27.20;99.90;;;;;;5137631;27;19987;-76
2021/06/21 06:12:16;;;;;;;;;;;27.30;99.90;;;;;;5140042;27;19911;-75
2021/06/21 06:14:42;;;;;;;;;;;27.40;99.90;;;;;;5136251;27;19918;-74
2021/06/21 06:17:08;;;;;;;;;;;27.60;99.90;;;;;;5146794;27;19911;-75
2021/06/21 06:19:34;;;;;;;;;;;27.80;99.90;;;;;;5138727;27;19915;-76
2021/06/21 06:22:00;;;;;;;;;;;28.00;99.90;;;;;;5124516;27;21250;-76
2021/06/21 06:24:26;;;;;;;;;;;28.10;99.90;;;;;;5119943;27;19911;-74
2021/06/21 06:26:52;;;;;;;;;;;28.20;99.90;;;;;;5132029;27;19918;-69
2021/06/21 06:29:19;;;;;;;;;;;28.30;99.90;;;;;;5125088;27;19954;-70
2021/06/21 06:31:47;;;;;;;;;;;28.40;99.90;;;;;;5135000;27;19912;-69
2021/06/21 06:34:13;;;;;;;;;;;28.40;99.90;;;;;;5136882;27;19967;-70
2021/06/21 06:36:39;;;;;;;;;;;28.40;99.90;;;;;;5135742;27;19908;-67
2021/06/21 06:39:05;;;;;;;;;;;28.50;99.90;;;;;;5113195;27;19989;-67
2021/06/21 06:41:31;;;;;;;;;;;28.40;99.90;;;;;;5128046;27;19937;-67
2021/06/21 06:43:56;;;;;;;;;;;28.40;99.90;;;;;;5133492;27;19916;-67
2021/06/21 06:46:22;;;;;;;;;;;28.40;99.90;;;;;;5134165;27;20405;-67
2021/06/21 06:48:48;;;;;;;;;;;28.40;99.90;;;;;;5132587;27;19920;-66
2021/06/21 06:51:14;;;;;;;;;;;28.50;99.90;;;;;;5135888;27;20278;-66
2021/06/21 06:53:47;;;;;;;;;;;28.60;99.90;;;;;;5144574;27;19908;-66
2021/06/21 06:58:57;;;;;;;;;;;28.90;99.90;;;;;;5127034;27;19942;-67
2021/06/21 07:01:24;;;;;;;;;;;29.10;99.90;;;;;;5140449;27;20369;-66
2021/06/21 07:03:50;;;;;;;;;;;29.10;99.90;;;;;;5139278;27;19929;-66
2021/06/21 07:06:16;;;;;;;;;;;29.20;99.90;;;;;;5143299;27;19960;-67
2021/06/21 07:08:41;;;;;;;;;;;29.20;99.90;;;;;;5108534;27;20391;-66
2021/06/21 07:11:07;;;;;;;;;;;29.00;99.90;;;;;;5127499;27;19911;-66
2021/06/21 07:13:32;;;;;;;;;;;29.00;99.90;;;;;;5133368;27;19975;-66
2021/06/21 07:15:58;;;;;;;;;;;29.20;99.90;;;;;;5137851;27;19923;-67
2021/06/21 07:18:23;;;;;;;;;;;29.30;99.90;;;;;;5133705;27;20018;-66
2021/06/21 07:20:49;;;;;;;;;;;29.40;99.90;;;;;;5132989;27;19914;-67
2021/06/21 07:23:15;;;;;;;;;;;29.50;99.90;;;;;;5145391;27;20002;-67
2021/06/21 07:25:40;;;;;;;;;;;29.00;99.90;;;;;;5133075;27;19919;-65
2021/06/21 07:28:06;;;;;;;;;;;28.80;99.90;;;;;;5128294;27;19938;-66
2021/06/21 07:30:31;;;;;;;;;;;28.80;99.90;;;;;;5140920;27;19912;-67
2021/06/21 07:32:57;;;;;;;;;;;28.90;99.90;;;;;;5141907;27;19951;-66
2021/06/21 07:35:23;;;;;;;;;;;29.10;99.90;;;;;;5132592;27;19994;-68
2021/06/21 07:37:48;;;;;;;;;;;29.20;99.90;;;;;;5132737;27;19911;-68
2021/06/21 07:40:14;;;;;;;;;;;29.30;99.90;;;;;;5096981;27;19919;-70
2021/06/21 07:42:39;;;;;;;;;;;29.40;99.90;;;;;;5118953;27;19912;-69
2021/06/21 07:45:05;;;;;;;;;;;29.50;99.90;;;;;;5130230;27;19912;-67
2021/06/21 07:47:31;;;;;;;;;;;29.60;99.90;;;;;;5139766;27;19916;-69
2021/06/21 07:49:56;;;;;;;;;;;29.70;99.90;;;;;;5129053;27;19938;-68
2021/06/21 07:52:22;;;;;;;;;;;29.70;99.90;;;;;;5146343;27;20009;-70
2021/06/21 07:54:49;;;;;;;;;;;29.70;99.90;;;;;;5141408;27;19963;-69
2021/06/21 07:57:15;;;;;;;;;;;29.70;99.90;;;;;;5140953;27;20269;-67
2021/06/21 07:59:41;;;;;;;;;;;29.70;99.90;;;;;;5134039;27;19915;-69
2021/06/21 08:02:06;;;;;;;;;;;29.90;99.90;;;;;;5145177;27;20344;-71
2021/06/21 08:04:32;;;;;;;;;;;29.90;99.90;;;;;;5135568;27;20151;-69
2021/06/21 08:06:57;;;;;;;;;;;29.80;99.90;;;;;;5129778;27;19934;-68
2021/06/21 08:09:23;;;;;;;;;;;29.80;99.90;;;;;;5121552;27;19956;-68
2021/06/21 08:11:48;;;;;;;;;;;29.80;99.90;;;;;;5149361;27;19960;-70
2021/06/21 08:14:14;;;;;;;;;;;29.60;99.90;;;;;;5136152;27;19919;-69
2021/06/21 08:16:40;;;;;;;;;;;29.50;99.90;;;;;;5129751;27;19919;-70
2021/06/21 08:19:05;;;;;;;;;;;29.50;99.90;;;;;;5137031;27;20663;-68
2021/06/21 08:21:31;;;;;;;;;;;29.30;99.90;;;;;;5137860;27;20287;-69
2021/06/21 08:23:58;;;;;;;;;;;29.10;99.90;;;;;;5139064;27;19922;-69
2021/06/21 08:26:23;;;;;;;;;;;28.90;99.90;;;;;;5142837;27;20440;-68
2021/06/21 08:28:49;;;;;;;;;;;28.80;99.90;;;;;;5132112;27;20002;-69
2021/06/21 08:31:15;;;;;;;;;;;28.80;99.90;;;;;;5108486;27;19918;-68
2021/06/21 08:33:40;;;;;;;;;;;28.80;99.90;;;;;;5142568;27;19930;-68
2021/06/21 08:36:06;;;;;;;;;;;28.80;99.90;;;;;;5147795;27;20018;-69
2021/06/21 08:38:34;;;;;;;;;;;28.80;99.90;;;;;;5139542;27;19912;-70
2021/06/21 08:41:02;;;;;;;;;;;28.70;99.90;;;;;;5141931;27;20613;-69
2021/06/21 08:43:27;;;;;;;;;;;28.80;99.90;;;;;;5147068;27;19911;-69
2021/06/21 08:45:53;;;;;;;;;;;28.80;99.90;;;;;;5139671;27;19933;-69
2021/06/21 08:48:19;;;;;;;;;;;28.80;99.90;;;;;;5135251;27;19911;-69
2021/06/21 08:50:45;;;;;;;;;;;28.80;99.90;;;;;;5140721;27;20408;-68
2021/06/21 08:53:10;;;;;;;;;;;28.90;99.90;;;;;;5141326;27;19953;-69
2021/06/21 08:55:36;;;;;;;;;;;28.90;99.90;;;;;;5129349;27;19912;-69
2021/06/21 08:58:03;;;;;;;;;;;28.80;99.90;;;;;;5132559;27;19915;-68
2021/06/21 09:00:28;;;;;;;;;;;28.70;99.90;;;;;;5133346;27;19922;-69
2021/06/21 09:02:54;;;;;;;;;;;28.70;99.90;;;;;;5142423;27;19907;-68
2021/06/21 09:05:19;;;;;;;;;;;28.70;99.90;;;;;;5134154;27;19961;-68
2021/06/21 09:07:47;;;;;;;;;;;28.70;99.90;;;;;;5137755;27;19918;-68
2021/06/21 09:10:23;;;;;;;;;;;28.70;99.90;;;;;;5132609;27;19916;-68
2021/06/21 09:13:00;;;;;;;;;;;28.80;99.90;;;;;;5109775;27;19994;-68
2021/06/21 09:15:28;;;;;;;;;;;29.00;99.90;;;;;;5139792;27;20415;-68
2021/06/21 09:17:54;;;;;;;;;;;29.10;99.90;;;;;;5132859;27;19915;-68
2021/06/21 09:20:20;;;;;;;;;;;29.20;99.90;;;;;;5137423;27;20006;-69
2021/06/21 09:23:01;;;;;;;;;;;29.20;99.90;;;;;;5131558;27;19911;-69
2021/06/21 09:25:27;;;;;;;;;;;29.10;99.90;;;;;;5139001;27;19953;-68
2021/06/21 09:28:00;;;;;;;;;;;29.00;99.90;;;;;;5138450;27;19923;-68
2021/06/21 09:30:27;;;;;;;;;;;29.10;99.90;;;;;;5127213;27;19939;-68
2021/06/21 09:32:54;;;;;;;;;;;29.10;99.90;;;;;;5140876;27;19911;-68
2021/06/21 09:35:25;;;;;;;;;;;29.10;99.90;;;;;;5123452;27;19961;-69
2021/06/21 09:37:51;;;;;;;;;;;29.10;99.90;;;;;;5137545;27;20010;-68
2021/06/21 09:40:33;;;;;;;;;;;29.10;99.90;;;;;;5140808;27;20006;-68
2021/06/21 09:43:16;;;;;;;;;;;29.10;99.90;;;;;;5129329;27;19919;-68
2021/06/21 09:45:59;;;;;;;;;;;29.20;99.90;;;;;;5129684;27;19919;-68
2021/06/21 09:48:40;;;;;;;;;;;29.30;99.90;;;;;;5136539;27;19911;-68
2021/06/21 09:51:16;;;;;;;;;;;29.50;99.90;;;;;;5140773;27;19908;-69
2021/06/21 09:53:51;;;;;;;;;;;29.40;99.90;;;;;;5133343;27;20392;-69
2021/06/21 09:56:32;;;;;;;;;;;29.60;99.90;;;;;;5117150;27;19923;-69
2021/06/21 09:58:58;;;;;;;;;;;29.60;99.90;;;;;;5135860;27;19938;-69
2021/06/21 10:01:28;;;;;;;;;;;29.60;99.90;;;;;;5136853;27;19912;-68
2021/06/21 10:03:54;;;;;;;;;;;29.60;99.90;;;;;;5136453;27;20282;-69
2021/06/21 10:06:20;;;;;;;;;;;29.60;99.90;;;;;;5122733;27;19918;-69
2021/06/21 10:08:46;;;;;;;;;;;29.70;99.90;;;;;;5140145;27;20479;-69
2021/06/21 10:11:30;;;;;;;;;;;29.80;99.90;;;;;;5138877;27;19980;-69
2021/06/21 10:13:56;;;;;;;;;;;30.00;99.90;;;;;;5132912;27;19918;-70
2021/06/21 10:16:22;;;;;;;;;;;29.80;99.90;;;;;;5128993;27;19911;-69
2021/06/21 10:18:48;;;;;;;;;;;29.70;99.90;;;;;;5137158;27;19915;-70
2021/06/21 10:21:14;;;;;;;;;;;29.70;99.90;;;;;;5143183;27;20003;-69
2021/06/21 10:23:39;;;;;;;;;;;29.80;99.90;;;;;;5130919;27;19959;-69
2021/06/21 10:26:05;;;;;;;;;;;29.70;99.90;;;;;;5141593;27;19907;-70
2021/06/21 10:28:30;;;;;;;;;;;29.80;99.90;;;;;;5133349;27;19912;-69
2021/06/21 10:30:56;;;;;;;;;;;29.80;99.90;;;;;;5139723;27;19915;-70
2021/06/21 10:33:22;;;;;;;;;;;30.10;99.90;;;;;;5131122;27;20430;-70
2021/06/21 10:35:47;;;;;;;;;;;30.10;99.90;;;;;;5129491;27;20418;-69
2021/06/21 10:38:16;;;;;;;;;;;30.10;99.90;;;;;;5140640;27;19919;-71
2021/06/21 10:40:54;;;;;;;;;;;30.20;99.90;;;;;;5151373;27;20420;-69
2021/06/21 10:43:38;;;;;;;;;;;30.20;99.90;;;;;;5131683;27;19915;-68
2021/06/21 10:46:20;;;;;;;;;;;30.20;99.90;;;;;;5128858;27;20046;-70
2021/06/21 10:49:07;;;;;;;;;;;30.20;99.90;;;;;;5130060;27;20010;-70
2021/06/21 10:51:37;;;;;;;;;;;30.20;99.90;;;;;;5143576;27;19946;-71
2021/06/21 10:54:09;;;;;;;;;;;30.00;99.90;;;;;;5137340;27;20449;-71
2021/06/21 10:56:48;;;;;;;;;;;30.00;99.90;;;;;;5132380;27;19968;-69
2021/06/21 10:59:15;;;;;;;;;;;29.90;99.90;;;;;;5124618;27;20061;-70
2021/06/21 11:01:45;;;;;;;;;;;29.90;99.90;;;;;;5138421;27;19972;-68
2021/06/21 11:04:11;;;;;;;;;;;29.90;99.90;;;;;;5135731;27;19911;-68
2021/06/21 11:06:37;;;;;;;;;;;29.90;99.90;;;;;;5135893;27;20421;-69
2021/06/21 11:09:04;;;;;;;;;;;30.00;99.90;;;;;;5139422;27;19923;-70
2021/06/21 11:11:32;;;;;;;;;;;30.00;99.90;;;;;;5135527;27;20408;-69
2021/06/21 11:14:08;;;;;;;;;;;30.10;99.90;;;;;;5135909;27;19962;-69
2021/06/21 11:16:34;;;;;;;;;;;30.20;99.90;;;;;;5110065;27;19942;-70
2021/06/21 11:19:22;;;;;;;;;;;30.10;99.90;;;;;;5122174;27;20571;-70
2021/06/21 11:21:53;;;;;;;;;;;29.80;99.90;;;;;;5135843;27;20418;-70
2021/06/21 11:24:37;;;;;;;;;;;30.00;99.90;;;;;;5133244;27;19934;-72
2021/06/21 11:27:07;;;;;;;;;;;30.00;99.90;;;;;;5143289;27;19931;-69
2021/06/21 11:29:36;;;;;;;;;;;29.90;99.90;;;;;;5137124;27;19919;-70
2021/06/21 11:32:05;;;;;;;;;;;29.80;99.90;;;;;;5139069;27;20345;-70
2021/06/21 11:34:44;;;;;;;;;;;29.90;99.90;;;;;;5129604;27;19915;-70
2021/06/21 11:37:29;;;;;;;;;;;29.90;99.90;;;;;;5139640;27;20372;-70
2021/06/21 11:40:18;;;;;;;;;;;29.90;99.90;;;;;;5150261;27;19911;-70
2021/06/21 11:43:03;;;;;;;;;;;30.10;99.90;;;;;;5145402;27;19915;-69
2021/06/21 11:45:48;;;;;;;;;;;30.10;99.90;;;;;;5141126;27;19923;-70
2021/06/21 11:48:30;;;;;;;;;;;30.30;99.90;;;;;;5143375;27;19919;-69
2021/06/21 11:50:56;;;;;;;;;;;30.40;99.90;;;;;;5144867;27;19911;-70
2021/06/21 11:53:23;;;;;;;;;;;30.40;99.90;;;;;;5126554;27;19962;-70
2021/06/21 11:55:48;;;;;;;;;;;30.30;99.90;;;;;;5135972;27;19918;-70
2021/06/21 11:58:14;;;;;;;;;;;30.10;99.90;;;;;;5146382;27;19911;-70
2021/06/21 12:00:40;;;;;;;;;;;30.00;99.90;;;;;;5143337;27;19923;-67
2021/06/21 12:03:07;;;;;;;;;;;30.00;99.90;;;;;;5129344;27;21206;-68
2021/06/21 12:05:32;;;;;;;;;;;30.00;99.90;;;;;;5148863;27;20513;-68
2021/06/21 12:07:58;;;;;;;;;;;30.20;99.90;;;;;;5125630;27;19918;-68
2021/06/21 12:10:24;;;;;;;;;;;30.30;99.90;;;;;;5142529;27;19911;-69
2021/06/21 12:12:54;;;;;;;;;;;30.30;99.90;;;;;;5143483;27;20621;-70
2021/06/21 12:15:27;;;;;;;;;;;30.30;99.90;;;;;;5142317;27;19911;-69
2021/06/21 12:17:55;;;;;;;;;;;30.20;99.90;;;;;;5136541;27;19931;-69
2021/06/21 12:20:21;;;;;;;;;;;30.30;99.90;;;;;;5113396;27;20243;-69
2021/06/21 12:22:54;;;;;;;;;;;30.20;99.90;;;;;;5140014;27;20004;-69
2021/06/21 12:25:27;;;;;;;;;;;30.30;99.90;;;;;;5139663;27;19911;-69
2021/06/21 12:27:54;;;;;;;;;;;30.40;99.90;;;;;;5140858;27;20340;-69
2021/06/21 12:30:39;;;;;;;;;;;30.40;99.90;;;;;;5139596;27;19912;-69
2021/06/21 12:33:23;;;;;;;;;;;30.20;99.90;;;;;;5136684;27;19914;-70
2021/06/21 12:36:07;;;;;;;;;;;30.10;99.90;;;;;;5134003;27;19914;-71
2021/06/21 12:38:33;;;;;;;;;;;30.00;99.90;;;;;;5133492;27;19958;-69
2021/06/21 12:41:10;;;;;;;;;;;30.10;99.90;;;;;;5133706;27;19923;-69
2021/06/21 12:43:36;;;;;;;;;;;30.10;99.90;;;;;;5134635;27;19908;-70
2021/06/21 12:46:01;;;;;;;;;;;30.00;99.90;;;;;;5134060;27;19911;-70
2021/06/21 12:48:27;;;;;;;;;;;30.00;99.90;;;;;;5134028;27;20018;-70
2021/06/21 12:50:52;;;;;;;;;;;30.10;99.90;;;;;;5132773;27;19937;-70
2021/06/21 12:53:18;;;;;;;;;;;30.30;99.90;;;;;;5115610;27;19907;-71
2021/06/21 12:55:44;;;;;;;;;;;30.30;99.90;;;;;;5133694;27;19916;-71
2021/06/21 12:58:09;;;;;;;;;;;30.20;99.90;;;;;;5133793;27;19907;-71
2021/06/21 13:00:36;;;;;;;;;;;30.20;99.90;;;;;;5114410;27;19923;-71
2021/06/21 13:03:10;;;;;;;;;;;30.20;99.90;;;;;;5133887;27;20423;-69
2021/06/21 13:05:58;;;;;;;;;;;30.20;99.90;;;;;;5133419;27;20308;-69
2021/06/21 13:08:30;;;;;;;;;;;30.00;99.90;;;;;;5132868;27;20004;-69
2021/06/21 13:11:06;;;;;;;;;;;30.20;99.90;;;;;;5133071;27;19939;-70
2021/06/21 13:13:38;;;;;;;;;;;30.30;99.90;;;;;;5133416;27;20492;-69
2021/06/21 13:16:07;;;;;;;;;;;30.60;99.90;;;;;;5133118;27;19918;-69
2021/06/21 13:19:05;;;;;;;;;;;30.50;99.90;;;;;;5132534;27;19926;-69
2021/06/21 13:22:00;;;;;;;;;;;30.60;99.90;;;;;;5107236;27;20396;-69
2021/06/21 13:24:31;;;;;;;;;;;30.50;99.90;;;;;;5110767;27;19992;-69
2021/06/21 13:26:56;;;;;;;;;;;30.40;99.90;;;;;;5133527;27;19943;-70
2021/06/21 13:29:24;;;;;;;;;;;30.50;99.90;;;;;;5132415;27;20369;-69
2021/06/21 13:31:50;;;;;;;;;;;30.70;99.90;;;;;;5132743;27;20277;-70
2021/06/21 13:34:55;;;;;;;;;;;30.50;99.90;;;;;;5132700;27;19911;-70
2021/06/21 13:37:23;;;;;;;;;;;30.50;99.90;;;;;;5028879;28;19919;-70
2021/06/21 13:39:56;;;;;;;;;;;30.20;99.90;;;;;;5015580;28;19918;-70
2021/06/21 13:42:34;;;;;;;;;;;30.10;99.90;;;;;;5063541;28;19908;-70
2021/06/21 13:45:01;;;;;;;;;;;30.20;99.90;;;;;;5111751;28;19908;-70
2021/06/21 13:47:56;;;;;;;;;;;30.40;99.90;;;;;;5093455;28;19953;-71
2021/06/21 13:50:26;;;;;;;;;;;30.30;99.90;;;;;;5105771;27;19912;-70
2021/06/21 13:52:52;;;;;;;;;;;30.40;99.90;;;;;;5132363;27;19955;-70
2021/06/21 13:55:18;;;;;;;;;;;30.40;99.90;;;;;;5133238;27;19955;-70
2021/06/21 13:57:46;;;;;;;;;;;30.40;99.90;;;;;;5114687;27;19907;-68
2021/06/21 14:00:35;;;;;;;;;;;30.20;99.90;;;;;;5131630;27;19926;-69
2021/06/21 14:03:02;;;;;;;;;;;30.20;99.90;;;;;;5118900;27;19911;-69
2021/06/21 14:05:27;;;;;;;;;;;30.20;99.90;;;;;;5132656;27;20348;-69
2021/06/21 14:07:54;;;;;;;;;;;30.10;99.90;;;;;;5131101;27;19938;-70
2021/06/21 14:10:20;;;;;;;;;;;29.80;99.90;;;;;;5132018;27;20002;-70
2021/06/21 14:12:46;;;;;;;;;;;30.00;99.90;;;;;;5131957;27;20349;-69
2021/06/21 14:15:12;;;;;;;;;;;30.00;99.90;;;;;;5113553;27;19907;-69
2021/06/21 14:17:38;;;;;;;;;;;30.00;99.90;;;;;;5131259;27;20429;-69
2021/06/21 14:20:04;;;;;;;;;;;30.00;99.90;;;;;;5129828;27;19963;-70
2021/06/21 14:22:30;;;;;;;;;;;30.10;99.90;;;;;;5131815;27;19960;-69
2021/06/21 14:24:55;;;;;;;;;;;30.10;99.90;;;;;;5130980;27;19907;-70